createdAt,value
2023-05-14T00:03:36.902Z,6.38
2023-05-14T00:06:03.786Z,5.50
2023-05-14T00:08:30.311Z,6.90
2023-05-14T00:10:59.059Z,5.85
2023-05-14T00:13:26.481Z,6.55
2023-05-14T00:15:54.254Z,6.28
2023-05-14T00:18:21.825Z,4.82
2023-05-14T00:23:15.570Z,5.90
2023-05-14T00:25:42.575Z,5.55
2023-05-14T00:28:09.342Z,6.15
2023-05-14T00:30:36.049Z,6.55
2023-05-14T00:33:03.649Z,6.53
2023-05-14T00:35:30.403Z,6.20
2023-05-14T00:40:26.820Z,5.20
2023-05-14T00:42:54.939Z,6.43
2023-05-14T00:45:22.408Z,6.60
2023-05-14T00:47:49.672Z,6.38
2023-05-14T00:50:18.045Z,6.50
2023-05-14T00:52:45.120Z,6.78
2023-05-14T00:55:16.421Z,5.65
2023-05-14T00:57:43.769Z,6.20
2023-05-14T01:00:11.018Z,7.10
2023-05-14T01:02:38.524Z,8.05
2023-05-14T01:07:43.710Z,6.30
2023-05-14T01:10:31.593Z,6.80
2023-05-14T01:13:20.893Z,7.43
2023-05-14T01:15:47.799Z,6.70
2023-05-14T01:18:18.257Z,5.97
2023-05-14T01:20:45.999Z,6.30
2023-05-14T01:23:12.747Z,5.60
2023-05-14T01:25:39.337Z,5.32
2023-05-14T01:28:20.099Z,5.35
2023-05-14T01:31:00.305Z,5.32
2023-05-14T01:33:29.750Z,5.18
2023-05-14T01:35:56.404Z,5.43
2023-05-14T01:38:24.224Z,4.88
2023-05-14T01:40:50.989Z,6.50
2023-05-14T01:45:44.797Z,5.40
2023-05-14T01:48:11.826Z,5.68
2023-05-14T01:50:38.737Z,5.80
2023-05-14T01:53:06.401Z,5.38
2023-05-14T01:55:33.267Z,5.57
2023-05-14T01:57:59.853Z,7.15
2023-05-14T02:02:53.668Z,5.78
2023-05-14T02:05:20.992Z,6.53
2023-05-14T02:07:48.222Z,6.70
2023-05-14T02:10:14.936Z,6.85
2023-05-14T02:15:10.986Z,5.78
2023-05-14T02:17:38.023Z,5.60
2023-05-14T02:20:05.460Z,6.32
2023-05-14T02:22:33.138Z,6.05
2023-05-14T02:27:26.895Z,6.32
2023-05-14T02:29:54.017Z,5.00
2023-05-14T02:32:21.106Z,5.90
2023-05-14T02:34:48.060Z,5.15
2023-05-14T02:37:14.824Z,6.30
2023-05-14T02:39:41.691Z,6.38
2023-05-14T02:42:08.405Z,6.07
2023-05-14T02:44:36.058Z,5.53
2023-05-14T02:47:03.123Z,6.32
2023-05-14T02:49:30.043Z,6.80
2023-05-14T02:51:56.788Z,6.18
2023-05-14T02:54:24.112Z,6.07
2023-05-14T02:56:51.237Z,6.72
2023-05-14T02:59:18.374Z,6.45
2023-05-14T03:01:45.802Z,5.55
2023-05-14T03:04:13.525Z,6.05
2023-05-14T03:06:40.333Z,6.55
2023-05-14T03:09:07.951Z,5.75
2023-05-14T03:14:01.575Z,6.57
2023-05-14T03:16:28.370Z,5.55
2023-05-14T03:18:55.482Z,6.90
2023-05-14T03:21:22.201Z,6.05
2023-05-14T03:26:16.243Z,6.13
2023-05-14T03:31:10.734Z,5.72
2023-05-14T03:33:37.566Z,6.53
2023-05-14T03:36:05.366Z,6.38
2023-05-14T03:38:32.709Z,6.10
2023-05-14T03:40:59.342Z,7.38
2023-05-14T03:43:26.416Z,6.53
2023-05-14T03:45:53.256Z,6.80
2023-05-14T03:48:20.167Z,6.03
2023-05-14T03:50:47.297Z,6.75
2023-05-14T03:53:14.142Z,5.97
2023-05-14T03:58:13.576Z,5.22
2023-05-14T04:00:45.001Z,6.10
2023-05-14T04:03:12.391Z,6.60
2023-05-14T04:05:39.430Z,7.25
2023-05-14T04:08:06.692Z,5.25
2023-05-14T04:10:33.516Z,5.07
2023-05-14T04:13:00.302Z,5.60
2023-05-14T04:15:27.174Z,6.38
2023-05-14T04:17:54.371Z,5.18
2023-05-14T04:20:21.844Z,4.85
2023-05-14T04:22:49.291Z,5.20
2023-05-14T04:25:15.984Z,5.70
2023-05-14T04:27:43.964Z,6.80
2023-05-14T04:30:11.778Z,5.82
2023-05-14T04:32:39.219Z,6.20
2023-05-14T04:35:06.748Z,6.05
2023-05-14T04:37:34.230Z,6.22
2023-05-14T04:40:01.048Z,6.75
2023-05-14T04:44:54.497Z,6.53
2023-05-14T04:47:21.601Z,6.05
2023-05-14T04:49:48.606Z,6.38
2023-05-14T04:52:15.359Z,7.35
2023-05-14T04:54:42.622Z,5.70
2023-05-14T04:59:36.019Z,5.80
2023-05-14T05:02:02.696Z,5.88
2023-05-14T05:04:29.430Z,7.03
2023-05-14T05:06:56.430Z,6.10
2023-05-14T05:09:24.064Z,6.07
2023-05-14T05:11:51.564Z,6.00
2023-05-14T05:14:18.605Z,7.50
2023-05-14T05:16:46.191Z,7.50
2023-05-14T05:19:13.919Z,6.30
2023-05-14T05:24:08.184Z,6.75
2023-05-14T05:26:36.821Z,7.55
2023-05-14T05:29:04.839Z,7.05
2023-05-14T05:31:32.194Z,6.53
2023-05-14T05:34:00.694Z,6.47
2023-05-14T05:36:28.607Z,6.72
2023-05-14T05:38:56.142Z,6.75
2023-05-14T05:41:23.007Z,8.40
2023-05-14T05:46:16.653Z,6.55
2023-05-14T05:48:43.469Z,7.32
2023-05-14T05:51:11.025Z,7.03
2023-05-14T05:53:37.598Z,7.68
2023-05-14T05:56:04.251Z,9.10
2023-05-14T06:00:58.113Z,6.57
2023-05-14T06:03:25.013Z,6.60
2023-05-14T06:08:19.501Z,7.82
2023-05-14T06:13:14.745Z,7.22
2023-05-14T06:15:41.598Z,8.00
2023-05-14T06:18:08.283Z,8.68
2023-05-14T06:23:02.363Z,7.45
2023-05-14T06:25:29.508Z,7.90
2023-05-14T06:27:57.062Z,6.60
2023-05-14T06:30:23.951Z,9.35
2023-05-14T06:32:51.823Z,7.32
2023-05-14T06:35:19.131Z,7.72
2023-05-14T06:37:46.037Z,8.43
2023-05-14T06:40:15.478Z,8.18
2023-05-14T06:42:42.571Z,8.77
2023-05-14T06:45:09.630Z,7.72
2023-05-14T06:47:36.655Z,7.32
2023-05-14T06:50:03.750Z,7.60
2023-05-14T06:52:31.527Z,9.00
2023-05-14T06:54:58.572Z,7.22
2023-05-14T06:57:25.347Z,7.68
2023-05-14T06:59:52.370Z,7.47
2023-05-14T07:02:19.237Z,7.10
2023-05-14T07:04:46.065Z,7.78
2023-05-14T07:07:15.319Z,7.32
2023-05-14T07:09:42.670Z,7.95
2023-05-14T07:12:09.578Z,8.60
2023-05-14T07:14:36.297Z,8.18
2023-05-14T07:17:03.012Z,8.73
2023-05-14T07:19:30.127Z,8.57
2023-05-14T07:21:57.708Z,7.78
2023-05-14T07:24:24.283Z,8.38
2023-05-14T07:26:51.163Z,8.50
2023-05-14T07:29:18.118Z,8.38
2023-05-14T07:31:44.989Z,8.43
2023-05-14T07:34:12.752Z,7.68
2023-05-14T07:36:39.553Z,8.05
2023-05-14T07:39:06.520Z,7.75
2023-05-14T07:44:00.224Z,8.45
2023-05-14T07:46:27.773Z,10.07
2023-05-14T07:48:54.984Z,11.50
2023-05-14T07:51:21.533Z,9.38
2023-05-14T07:53:48.434Z,8.50
2023-05-14T07:56:15.201Z,10.00
2023-05-14T08:01:09.159Z,9.43
2023-05-14T08:03:36.236Z,10.93
2023-05-14T08:06:03.917Z,8.38
2023-05-14T08:08:31.082Z,8.82
2023-05-14T08:13:25.676Z,8.32
2023-05-14T08:15:52.578Z,7.43
2023-05-14T08:18:19.604Z,6.95
2023-05-14T08:23:14.178Z,8.55
2023-05-14T08:25:41.309Z,8.18
2023-05-14T08:28:09.074Z,7.55
2023-05-14T08:30:36.658Z,7.65
2023-05-14T08:33:05.677Z,6.85
2023-05-14T08:35:32.551Z,7.40
2023-05-14T08:40:26.885Z,6.82
2023-05-14T08:42:56.766Z,5.30
2023-05-14T08:45:33.979Z,6.38
2023-05-14T08:48:02.699Z,5.68
2023-05-14T08:50:32.712Z,5.53
2023-05-14T08:52:59.560Z,5.30
2023-05-14T08:55:26.657Z,5.07
2023-05-14T08:57:53.755Z,5.35
2023-05-14T09:00:20.941Z,5.75
2023-05-14T09:02:49.176Z,7.05
2023-05-14T09:05:17.236Z,6.57
2023-05-14T09:07:45.465Z,6.28
2023-05-14T09:10:12.834Z,6.30
2023-05-14T09:12:40.406Z,6.15
2023-05-14T09:15:08.034Z,6.15
2023-05-14T09:17:35.615Z,5.68
2023-05-14T09:20:03.960Z,5.40
2023-05-14T09:22:33.834Z,5.45
2023-05-14T09:25:05.941Z,5.10
2023-05-14T09:27:55.328Z,4.97
2023-05-14T09:30:42.539Z,4.65
2023-05-14T09:33:29.395Z,4.82
2023-05-14T09:35:59.971Z,5.55
2023-05-14T09:38:29.808Z,5.18
2023-05-14T09:40:58.888Z,5.20
2023-05-14T09:43:26.662Z,5.13
2023-05-14T09:45:54.085Z,4.85
2023-05-14T09:48:40.536Z,4.25
2023-05-14T09:51:31.408Z,4.43
2023-05-14T09:54:07.111Z,4.10
2023-05-14T09:56:55.465Z,4.15
2023-05-14T09:59:24.355Z,4.65
2023-05-14T10:01:53.596Z,4.32
2023-05-14T10:04:20.902Z,4.32
2023-05-14T10:06:51.646Z,4.22
2023-05-14T10:09:26.104Z,4.70
2023-05-14T10:11:58.230Z,4.85
2023-05-14T10:14:29.252Z,4.53
2023-05-14T10:16:58.902Z,4.10
2023-05-14T10:19:29.332Z,4.05
2023-05-14T10:22:01.924Z,4.00
2023-05-14T10:26:56.699Z,3.88
2023-05-14T10:29:33.657Z,5.03
2023-05-14T10:32:05.969Z,4.65
2023-05-14T10:37:21.115Z,6.93
2023-05-14T10:39:56.444Z,8.57
2023-05-14T10:42:40.475Z,6.35
2023-05-14T10:45:09.085Z,5.10
2023-05-14T10:47:37.942Z,5.03
2023-05-14T10:50:07.181Z,4.60
2023-05-14T10:52:35.343Z,4.18
2023-05-14T10:55:04.410Z,4.20
2023-05-14T10:57:32.681Z,4.22
2023-05-14T11:00:01.023Z,4.60
2023-05-14T11:02:36.933Z,4.35
2023-05-14T11:05:05.742Z,4.75
2023-05-14T11:07:38.456Z,3.90
2023-05-14T11:10:07.546Z,4.18
2023-05-14T11:12:36.613Z,4.10
2023-05-14T11:15:07.101Z,3.83
2023-05-14T11:17:35.537Z,3.80
2023-05-14T11:20:02.906Z,4.45
2023-05-14T11:22:30.053Z,3.58
2023-05-14T11:24:57.563Z,4.07
2023-05-14T11:27:24.532Z,3.38
2023-05-14T11:29:51.180Z,3.50
2023-05-14T11:32:19.350Z,3.78
2023-05-14T11:34:46.852Z,4.07
2023-05-14T11:37:16.039Z,4.13
2023-05-14T11:39:49.774Z,3.10
2023-05-14T11:42:18.650Z,3.25
2023-05-14T11:44:48.986Z,3.40
2023-05-14T11:47:17.388Z,3.55
2023-05-14T11:49:44.725Z,3.88
2023-05-14T11:52:14.058Z,3.50
2023-05-14T11:54:43.074Z,3.28
2023-05-14T11:57:21.682Z,3.85
2023-05-14T11:59:49.758Z,3.45
2023-05-14T12:02:19.776Z,3.33
2023-05-14T12:04:51.792Z,3.90
2023-05-14T12:07:19.012Z,3.20
2023-05-14T12:09:51.089Z,3.35
2023-05-14T12:12:21.200Z,3.55
2023-05-14T12:14:49.500Z,3.80
2023-05-14T12:17:22.745Z,3.83
2023-05-14T12:19:51.321Z,4.22
2023-05-14T12:22:20.561Z,5.25
2023-05-14T12:24:55.290Z,4.22
2023-05-14T12:27:28.123Z,4.15
2023-05-14T12:32:37.963Z,3.83
2023-05-14T12:35:05.959Z,3.67
2023-05-14T12:37:33.995Z,4.10
2023-05-14T12:40:00.741Z,3.63
2023-05-14T12:42:27.689Z,3.67
2023-05-14T12:44:54.626Z,3.88
2023-05-14T12:47:21.495Z,3.53
2023-05-14T12:49:48.345Z,3.78
2023-05-14T12:54:45.799Z,3.45
2023-05-14T12:57:13.222Z,3.70
2023-05-14T12:59:39.887Z,3.63
2023-05-14T13:02:07.023Z,3.50
2023-05-14T13:04:34.305Z,3.63
2023-05-14T13:07:01.185Z,3.67
2023-05-14T13:09:28.148Z,3.83
2023-05-14T13:11:54.935Z,3.88
2023-05-14T13:14:21.844Z,3.95
2023-05-14T13:16:48.578Z,4.13
2023-05-14T13:19:15.681Z,4.13
2023-05-14T13:21:43.533Z,3.88
2023-05-14T13:24:10.523Z,4.45
2023-05-14T13:26:37.837Z,4.40
2023-05-14T13:29:04.873Z,4.20
2023-05-14T13:31:31.769Z,4.20
2023-05-14T13:33:59.388Z,4.43
2023-05-14T13:36:26.412Z,5.15
2023-05-14T13:38:53.295Z,4.47
2023-05-14T13:41:21.542Z,4.63
2023-05-14T13:43:48.658Z,4.75
2023-05-14T13:46:15.575Z,4.50
2023-05-14T13:48:42.211Z,4.28
2023-05-14T13:51:09.033Z,4.50
2023-05-14T13:53:36.109Z,5.07
2023-05-14T13:56:02.781Z,4.60
2023-05-14T13:58:29.964Z,3.95
2023-05-14T14:00:56.908Z,4.20
2023-05-14T14:03:24.025Z,3.55
2023-05-14T14:05:52.070Z,3.47
2023-05-14T14:08:23.824Z,4.55
2023-05-14T14:10:52.081Z,4.50
2023-05-14T14:13:21.110Z,3.35
2023-05-14T14:15:49.157Z,3.45
2023-05-14T14:18:16.033Z,3.53
2023-05-14T14:20:43.837Z,3.70
2023-05-14T14:23:10.639Z,3.25
2023-05-14T14:25:37.651Z,3.88
2023-05-14T14:28:05.124Z,3.78
2023-05-14T14:30:32.680Z,3.78
2023-05-14T14:33:01.256Z,3.67
2023-05-14T14:35:28.288Z,3.55
2023-05-14T14:37:55.748Z,3.88
2023-05-14T14:40:23.849Z,4.10
2023-05-14T14:42:52.426Z,3.95
2023-05-14T14:45:19.170Z,3.67
2023-05-14T14:47:46.488Z,3.55
2023-05-14T14:50:13.686Z,4.05
2023-05-14T14:52:45.596Z,3.95
2023-05-14T14:55:12.906Z,4.18
2023-05-14T14:57:39.938Z,4.10
2023-05-14T15:00:07.763Z,5.75
2023-05-14T15:02:35.050Z,4.10
2023-05-14T15:05:02.343Z,3.38
2023-05-14T15:07:32.737Z,3.97
2023-05-14T15:09:59.488Z,3.90
2023-05-14T15:12:26.161Z,4.28
2023-05-14T15:14:52.890Z,3.30
2023-05-14T15:17:19.448Z,3.40
2023-05-14T15:19:46.198Z,3.97
2023-05-14T15:22:13.403Z,4.10
2023-05-14T15:24:40.440Z,4.40
2023-05-14T15:27:06.986Z,4.10
2023-05-14T15:29:33.993Z,4.18
2023-05-14T15:32:00.735Z,4.03
2023-05-14T15:34:27.801Z,4.15
2023-05-14T15:36:54.371Z,4.05
2023-05-14T15:39:20.925Z,3.40
2023-05-14T15:41:47.463Z,3.70
2023-05-14T15:44:14.136Z,3.60
2023-05-14T15:46:40.798Z,3.60
2023-05-14T15:49:07.503Z,3.75
2023-05-14T15:51:34.625Z,3.17
2023-05-14T15:54:01.981Z,3.60
2023-05-14T15:56:28.549Z,3.45
2023-05-14T15:58:55.203Z,3.25
2023-05-14T16:01:21.857Z,3.85
2023-05-14T16:03:48.662Z,3.90
2023-05-14T16:06:15.326Z,3.72
2023-05-14T16:08:41.896Z,3.17
2023-05-14T16:11:08.673Z,3.05
2023-05-14T16:13:37.649Z,3.40
2023-05-14T16:16:04.535Z,3.28
2023-05-14T16:18:31.597Z,3.50
2023-05-14T16:20:58.808Z,2.80
2023-05-14T16:23:25.965Z,2.60
2023-05-14T16:25:53.415Z,4.75
2023-05-14T16:28:20.522Z,2.70
2023-05-14T16:30:47.275Z,2.40
2023-05-14T16:33:13.869Z,2.67
2023-05-14T16:35:40.918Z,2.50
2023-05-14T16:38:08.338Z,2.28
2023-05-14T16:40:35.085Z,2.28
2023-05-14T16:43:02.440Z,2.13
2023-05-14T16:45:29.790Z,2.75
2023-05-14T16:47:56.899Z,2.10
2023-05-14T16:50:23.556Z,2.30
2023-05-14T16:52:50.857Z,1.60
2023-05-14T16:55:19.372Z,1.70
2023-05-14T16:57:46.386Z,1.70
2023-05-14T17:00:13.945Z,1.65
2023-05-14T17:02:41.377Z,1.75
2023-05-14T17:05:08.503Z,1.80
2023-05-14T17:07:37.231Z,1.42
2023-05-14T17:10:04.581Z,2.03
2023-05-14T17:12:31.877Z,1.92
2023-05-14T17:14:58.931Z,2.30
2023-05-14T17:17:25.713Z,2.03
2023-05-14T17:22:18.945Z,1.85
2023-05-14T17:24:45.546Z,1.70
2023-05-14T17:29:38.923Z,2.30
2023-05-14T17:32:06.032Z,1.80
2023-05-14T17:34:33.042Z,2.00
2023-05-14T17:39:28.097Z,1.80
2023-05-14T17:41:54.929Z,1.48
2023-05-14T17:44:21.920Z,1.60
2023-05-14T17:46:49.634Z,1.92
2023-05-14T17:49:16.213Z,1.40
2023-05-14T17:54:09.653Z,1.17
2023-05-14T17:59:03.689Z,1.40
2023-05-14T18:01:34.124Z,1.23
2023-05-14T18:04:01.062Z,1.40
2023-05-14T18:06:28.044Z,1.75
2023-05-14T18:08:55.022Z,1.65
2023-05-14T18:11:21.826Z,2.13
2023-05-14T18:13:48.685Z,1.75
2023-05-14T18:16:16.158Z,1.60
2023-05-14T18:18:42.802Z,1.83
2023-05-14T18:21:09.848Z,1.40
2023-05-14T18:23:36.598Z,1.42
2023-05-14T18:28:30.374Z,1.70
2023-05-14T18:30:57.841Z,1.58
2023-05-14T18:33:24.889Z,1.73
2023-05-14T18:35:52.045Z,1.70
2023-05-14T18:38:19.713Z,1.67
2023-05-14T18:40:46.669Z,2.00
2023-05-14T18:43:15.057Z,1.50
2023-05-14T18:45:42.152Z,1.48
2023-05-14T18:48:09.715Z,1.50
2023-05-14T18:50:38.166Z,1.38
2023-05-14T18:53:06.578Z,1.60
2023-05-14T18:55:34.861Z,1.23
2023-05-14T18:58:03.084Z,1.58
2023-05-14T19:00:29.649Z,1.60
2023-05-14T19:02:56.218Z,1.40
2023-05-14T19:05:23.297Z,1.20
2023-05-14T19:07:50.489Z,1.48
2023-05-14T19:10:17.055Z,1.50
2023-05-14T19:12:43.893Z,1.13
2023-05-14T19:17:37.963Z,1.52
2023-05-14T19:20:06.241Z,1.50
2023-05-14T19:22:33.985Z,1.58
2023-05-14T19:27:27.596Z,1.50
2023-05-14T19:29:54.271Z,2.10
2023-05-14T19:34:49.533Z,1.30
2023-05-14T19:37:17.948Z,1.63
2023-05-14T19:39:45.554Z,1.40
2023-05-14T19:42:12.714Z,1.80
2023-05-14T19:44:39.627Z,1.67
2023-05-14T19:49:33.098Z,1.20
2023-05-14T19:51:59.702Z,1.40
2023-05-14T19:54:26.745Z,1.42
2023-05-14T19:56:54.641Z,1.33
2023-05-14T19:59:21.626Z,1.50
2023-05-14T20:01:48.772Z,1.27
2023-05-14T20:06:45.296Z,1.48
2023-05-14T20:09:13.668Z,1.48
2023-05-14T20:11:40.549Z,1.60
2023-05-14T20:14:07.406Z,1.40
2023-05-14T20:16:34.097Z,1.55
2023-05-14T20:19:01.722Z,1.50
2023-05-14T20:21:28.592Z,1.90
2023-05-14T20:23:55.812Z,1.63
2023-05-14T20:26:22.513Z,1.50
2023-05-14T20:28:49.496Z,1.27
2023-05-14T20:31:16.493Z,1.23
2023-05-14T20:33:43.179Z,1.30
2023-05-14T20:38:37.167Z,1.20
2023-05-14T20:43:31.776Z,1.08
2023-05-14T20:45:59.068Z,1.48
2023-05-14T20:48:26.340Z,1.20
2023-05-14T20:50:53.023Z,1.40
2023-05-14T20:53:20.065Z,1.65
2023-05-14T20:55:46.727Z,1.20
2023-05-14T21:00:40.002Z,1.15
2023-05-14T21:03:07.077Z,1.20
2023-05-14T21:05:33.995Z,1.27
2023-05-14T21:08:00.717Z,1.13
2023-05-14T21:12:54.860Z,1.17
2023-05-14T21:17:48.417Z,1.30
2023-05-14T21:22:42.389Z,1.42
2023-05-14T21:25:09.561Z,1.08
2023-05-14T21:27:37.438Z,1.40
2023-05-14T21:30:04.556Z,1.27
2023-05-14T21:32:31.952Z,1.40
2023-05-14T21:35:00.845Z,1.27
2023-05-14T21:37:27.769Z,1.63
2023-05-14T21:42:21.123Z,1.52
2023-05-14T21:44:48.226Z,1.50
2023-05-14T21:47:15.984Z,1.40
2023-05-14T21:49:43.523Z,1.77
2023-05-14T21:52:10.740Z,1.45
2023-05-14T21:54:37.617Z,1.75
2023-05-14T21:57:04.455Z,1.50
2023-05-14T22:02:07.040Z,1.60
2023-05-14T22:04:35.068Z,1.50
2023-05-14T22:07:04.711Z,1.30
2023-05-14T22:09:32.081Z,1.60
2023-05-14T22:11:59.622Z,1.65
2023-05-14T22:14:29.347Z,1.48
2023-05-14T22:16:56.598Z,1.60
2023-05-14T22:19:24.245Z,1.55
2023-05-14T22:21:51.100Z,1.50
2023-05-14T22:24:18.294Z,1.42
2023-05-14T22:26:45.337Z,1.40
2023-05-14T22:29:12.161Z,1.30
2023-05-14T22:31:39.295Z,1.77
2023-05-14T22:36:33.887Z,1.60
2023-05-14T22:41:28.169Z,1.52
2023-05-14T22:43:54.862Z,1.55
2023-05-14T22:46:21.734Z,1.70
2023-05-14T22:48:49.202Z,1.33
2023-05-14T22:51:16.440Z,1.42
2023-05-14T22:53:43.731Z,2.47
2023-05-14T22:56:10.637Z,2.20
2023-05-14T22:58:37.540Z,1.98
2023-05-14T23:01:04.682Z,1.73
2023-05-14T23:03:31.557Z,1.70
2023-05-14T23:05:58.299Z,1.48
2023-05-14T23:08:25.228Z,2.22
2023-05-14T23:10:53.140Z,2.10
2023-05-14T23:13:20.392Z,2.00
2023-05-14T23:18:14.402Z,2.05
2023-05-14T23:20:41.119Z,1.50
2023-05-14T23:23:08.108Z,2.05
2023-05-14T23:25:35.121Z,1.55
2023-05-14T23:28:02.555Z,2.35
2023-05-14T23:30:29.222Z,2.00
2023-05-14T23:32:56.838Z,1.63
2023-05-14T23:35:24.126Z,1.80
2023-05-14T23:37:51.768Z,2.30
2023-05-14T23:40:19.724Z,1.45
2023-05-14T23:42:46.958Z,2.05
2023-05-14T23:45:13.739Z,1.83
2023-05-14T23:47:40.956Z,1.90
2023-05-14T23:50:08.015Z,2.13
2023-05-14T23:52:34.873Z,2.10
2023-05-14T23:55:01.564Z,1.80
2023-05-14T23:57:28.555Z,1.67
2023-05-14T23:59:55.642Z,1.80
